Time;durP1;ratioP1;P1;durP2;ratioP2;P2;SDS_P1;SDS_P2;PMS_P1;PMS_P2;Temp;Humidity;BMP_temperature;BMP_pressure;BME280_temperature;BME280_humidity;BME280_pressure;Samples;Min_cycle;Max_cycle;Signal;HPM_P1;HPM_P2
2022/06/05 00:00:08;;;;;;;10.98;7.90;;;;;;;15.40;100.00;100130.31;5014309;28;20042;-54
2022/06/05 00:03:20;;;;;;;11.43;7.72;;;;;;;15.48;100.00;100134.41;5016833;28;20049;-53
2022/06/05 00:06:13;;;;;;;9.85;7.13;;;;;;;15.46;100.00;100131.81;5015145;28;20526;-54
2022/06/05 00:09:21;;;;;;;8.18;7.13;;;;;;;15.60;100.00;100133.94;5016614;28;20050;-53
2022/06/05 00:12:09;;;;;;;9.48;7.22;;;;;;;15.59;100.00;100132.19;5008435;28;20049;-54
2022/06/05 00:14:54;;;;;;;8.13;7.28;;;;;;;15.61;100.00;100135.63;5008324;28;20059;-52
2022/06/05 00:17:38;;;;;;;9.15;6.38;;;;;;;15.62;100.00;100140.84;5009273;28;20052;-53
2022/06/05 00:20:22;;;;;;;9.35;6.60;;;;;;;15.61;100.00;100149.69;5013637;28;20404;-53
2022/06/05 00:23:08;;;;;;;7.97;7.20;;;;;;;15.61;100.00;100143.56;5015591;28;20511;-53
2022/06/05 00:25:59;;;;;;;6.97;6.38;;;;;;;15.64;100.00;100143.44;5011843;28;20073;-52
2022/06/05 00:29:02;;;;;;;9.98;8.20;;;;;;;15.74;100.00;100151.88;5007502;28;20085;-53
2022/06/05 00:32:07;;;;;;;7.85;5.57;;;;;;;15.68;100.00;100152.97;5009260;28;20045;-52
2022/06/05 00:34:52;;;;;;;7.32;5.35;;;;;;;15.60;100.00;100147.13;5009695;28;20046;-53
2022/06/05 00:38:02;;;;;;;10.10;7.18;;;;;;;15.58;100.00;100162.16;5009021;28;20061;-54
2022/06/05 00:41:24;;;;;;;6.50;5.90;;;;;;;15.49;100.00;100147.53;5009117;28;20057;-53
2022/06/05 00:44:13;;;;;;;7.80;6.03;;;;;;;15.60;100.00;100155.06;5009294;28;20046;-53
2022/06/05 00:46:59;;;;;;;6.90;6.18;;;;;;;15.50;100.00;100151.03;5009441;28;20138;-53
2022/06/05 00:50:05;;;;;;;8.82;7.13;;;;;;;15.49;100.00;100147.53;5009648;28;20065;-53
2022/06/05 00:52:56;;;;;;;8.02;6.85;;;;;;;15.37;100.00;100146.28;5009002;28;20052;-52
2022/06/05 00:55:44;;;;;;;7.72;6.47;;;;;;;15.36;100.00;100133.13;5007000;28;20046;-52
2022/06/05 00:58:30;;;;;;;7.22;6.50;;;;;;;15.30;100.00;100139.47;5009969;28;20072;-53
2022/06/05 01:01:15;;;;;;;10.00;7.22;;;;;;;15.20;100.00;100127.56;5009652;28;20050;-53
2022/06/05 01:04:01;;;;;;;7.10;6.40;;;;;;;15.20;100.00;100124.94;5007670;28;20050;-53
2022/06/05 01:06:46;;;;;;;8.90;6.28;;;;;;;15.16;100.00;100113.66;5016199;28;20056;-53
2022/06/05 01:09:31;;;;;;;8.05;6.90;;;;;;;15.03;100.00;100108.91;5017094;28;20049;-53
2022/06/05 01:12:34;;;;;;;6.20;5.57;;;;;;;14.92;100.00;100101.44;5013272;28;20045;-52
2022/06/05 01:16:03;;;;;;;6.00;4.30;;;;;;;14.91;100.00;100095.25;5008937;28;20045;-53
2022/06/05 01:18:59;;;;;;;4.88;4.22;;;;;;;14.71;100.00;100087.25;5001510;28;20502;-54
2022/06/05 01:22:18;;;;;;;5.82;4.70;;;;;;;14.54;100.00;100095.81;5000539;28;20050;-53
2022/06/05 01:25:23;;;;;;;6.03;4.25;;;;;;;14.46;100.00;100100.44;5014765;28;20481;-52
2022/06/05 01:28:24;;;;;;;6.30;5.20;;;;;;;14.38;100.00;100107.78;5007695;28;20041;-53
2022/06/05 01:31:20;;;;;;;7.05;5.50;;;;;;;14.15;100.00;100105.97;5007302;28;20046;-53
2022/06/05 01:34:33;;;;;;;7.05;6.35;;;;;;;14.17;100.00;100114.66;5008315;28;20049;-53
2022/06/05 01:37:27;;;;;;;7.00;5.63;;;;;;;13.99;100.00;100117.03;5011562;28;20045;-53
2022/06/05 01:40:27;;;;;;;5.95;5.35;;;;;;;13.88;100.00;100110.41;5010274;28;20057;-54
2022/06/05 01:43:16;;;;;;;8.68;5.95;;;;;;;13.96;100.00;100108.38;5009203;28;20046;-53
2022/06/05 01:46:14;;;;;;;5.72;5.07;;;;;;;13.83;100.00;100107.06;5009758;28;20072;-52
2022/06/05 01:49:01;;;;;;;6.32;5.68;;;;;;;13.83;100.00;100115.81;5014065;28;20056;-53
2022/06/05 01:52:01;;;;;;;6.68;5.40;;;;;;;13.63;100.00;100105.09;5007984;28;20054;-52
2022/06/05 01:55:02;;;;;;;6.70;5.60;;;;;;;13.62;100.00;100098.97;5014062;28;20479;-53
2022/06/05 01:57:50;;;;;;;6.10;5.18;;;;;;;13.53;100.00;100091.38;5009478;28;20120;-53
2022/06/05 02:00:35;;;;;;;6.72;5.47;;;;;;;13.52;100.00;100094.94;5006181;28;20054;-52
2022/06/05 02:03:23;;;;;;;6.72;5.70;;;;;;;13.31;100.00;100099.94;5011805;28;20508;-53
2022/06/05 02:06:11;;;;;;;7.25;6.53;;;;;;;13.15;100.00;100098.69;5013544;28;20068;-52
2022/06/05 02:09:11;;;;;;;7.85;6.43;;;;;;;13.22;100.00;100109.88;5012370;28;20058;-51
2022/06/05 02:11:55;;;;;;;6.93;6.22;;;;;;;13.15;100.00;100116.22;5016958;28;20049;-53
2022/06/05 02:14:42;;;;;;;7.30;5.55;;;;;;;13.09;100.00;100122.53;5017457;28;20050;-52
2022/06/05 02:17:27;;;;;;;7.25;6.57;;;;;;;12.97;100.00;100121.16;5018750;28;20049;-52
2022/06/05 02:20:11;;;;;;;7.68;5.72;;;;;;;12.86;100.00;100115.34;5017242;28;20556;-53
2022/06/05 02:22:57;;;;;;;6.43;5.15;;;;;;;12.91;100.00;100128.34;5016700;28;20042;-52
2022/06/05 02:25:42;;;;;;;6.40;5.10;;;;;;;12.74;100.00;100102.53;5015430;28;20057;-52
2022/06/05 02:28:26;;;;;;;13.23;10.00;;;;;;;12.69;100.00;100131.59;5012062;28;20519;-52
2022/06/05 02:31:22;;;;;;;8.80;7.55;;;;;;;12.71;100.00;100132.44;5009633;28;20061;-53
2022/06/05 02:34:33;;;;;;;7.20;6.38;;;;;;;12.65;100.00;100135.22;5006454;28;20046;-52
2022/06/05 02:37:33;;;;;;;6.90;5.82;;;;;;;12.47;100.00;100148.88;5009351;28;20083;-53
2022/06/05 02:40:18;;;;;;;6.03;5.43;;;;;;;12.54;100.00;100151.28;5007406;28;20384;-52
2022/06/05 02:43:25;;;;;;;6.03;5.25;;;;;;;12.44;100.00;100155.06;5010297;28;20084;-52
2022/06/05 02:46:12;;;;;;;5.32;4.45;;;;;;;12.43;100.00;100149.88;5014967;28;20041;-52
2022/06/05 02:49:05;;;;;;;6.22;5.10;;;;;;;12.42;100.00;100156.03;5011808;28;20048;-52
2022/06/05 02:51:53;;;;;;;6.22;5.28;;;;;;;12.36;100.00;100150.03;5015098;28;20045;-52
2022/06/05 02:54:46;;;;;;;6.28;4.43;;;;;;;12.35;100.00;100150.09;5016295;28;20044;-53
2022/06/05 02:57:31;;;;;;;;;;;;;;;12.54;100.00;100137.28;5017495;28;20131;-53
2022/06/05 03:00:23;;;;;;;6.38;4.65;;;;;;;12.53;100.00;100156.59;5015151;28;19979;-53
2022/06/05 03:06:10;;;;;;;6.22;4.60;;;;;;;12.68;100.00;100156.16;5015208;28;20099;-52
2022/06/05 03:08:55;;;;;;;6.28;4.45;;;;;;;12.66;100.00;100151.84;5014659;28;20056;-52
2022/06/05 03:11:42;;;;;;;6.32;4.70;;;;;;;12.59;100.00;100151.16;5016312;28;20064;-52
2022/06/05 03:14:27;;;;;;;5.22;4.47;;;;;;;12.75;100.00;100148.97;5014026;28;20042;-53
2022/06/05 03:17:11;;;;;;;5.93;4.80;;;;;;;12.81;100.00;100151.44;5013647;28;20046;-53
2022/06/05 03:19:57;;;;;;;5.90;4.88;;;;;;;12.85;100.00;100160.94;5014073;28;20057;-52
2022/06/05 03:22:41;;;;;;;6.05;5.30;;;;;;;12.84;100.00;100151.34;5014507;28;20054;-52
2022/06/05 03:25:26;;;;;;;5.65;4.93;;;;;;;12.87;100.00;100148.63;5017519;28;20041;-53
2022/06/05 03:28:13;;;;;;;5.30;4.80;;;;;;;12.94;100.00;100151.94;5017823;28;20072;-52
2022/06/05 03:30:59;;;;;;;5.95;5.45;;;;;;;12.98;100.00;100157.03;5018608;28;20050;-51
2022/06/05 03:33:43;;;;;;;6.53;5.82;;;;;;;12.97;100.00;100157.97;5017648;28;20050;-54
2022/06/05 03:36:28;;;;;;;5.82;5.20;;;;;;;13.13;100.00;100146.97;5016674;28;20056;-53
2022/06/05 03:39:12;;;;;;;5.00;4.50;;;;;;;13.18;100.00;100147.69;5014988;28;20144;-53
2022/06/05 03:41:57;;;;;;;5.65;4.78;;;;;;;13.14;100.00;100146.06;5011634;28;20464;-53
2022/06/05 03:44:42;;;;;;;4.80;4.30;;;;;;;13.24;100.00;100140.50;5010113;28;20436;-53
2022/06/05 03:47:27;;;;;;;5.50;5.00;;;;;;;13.29;100.00;100158.78;5010338;28;20389;-54
2022/06/05 03:50:14;;;;;;;8.45;6.40;;;;;;;13.40;100.00;100164.59;5014562;28;20053;-53
2022/06/05 03:52:58;;;;;;;8.98;6.57;;;;;;;13.47;100.00;100162.63;5013344;28;20389;-53
2022/06/05 03:55:43;;;;;;;9.18;6.30;;;;;;;13.43;100.00;100161.84;5012996;28;20492;-53
2022/06/05 03:58:28;;;;;;;8.70;5.38;;;;;;;13.63;100.00;100165.63;5011747;28;20045;-52
2022/06/05 04:01:14;;;;;;;9.95;5.35;;;;;;;13.80;100.00;100166.78;5014974;28;20298;-53
2022/06/05 04:03:59;;;;;;;8.80;5.35;;;;;;;13.93;100.00;100156.72;5014327;28;20045;-53
2022/06/05 04:06:43;;;;;;;6.45;5.35;;;;;;;14.36;100.00;100165.78;5015334;28;20465;-52
2022/06/05 04:09:28;;;;;;;6.05;5.45;;;;;;;14.49;100.00;100177.66;5010936;28;20103;-53
2022/06/05 04:12:12;;;;;;;6.75;5.43;;;;;;;15.10;100.00;100177.19;5007807;28;20046;-53
2022/06/05 04:14:59;;;;;;;5.68;4.82;;;;;;;15.51;100.00;100164.19;5008789;28;20481;-52
2022/06/05 04:17:43;;;;;;;5.30;4.80;;;;;;;15.64;100.00;100178.63;5009175;28;20049;-54
2022/06/05 04:20:28;;;;;;;8.65;5.05;;;;;;;16.04;100.00;100174.38;5008813;28;20038;-52
2022/06/05 04:23:12;;;;;;;5.60;5.10;;;;;;;16.26;100.00;100174.34;5008770;28;20080;-53
2022/06/05 04:25:56;;;;;;;5.22;4.30;;;;;;;16.43;100.00;100173.59;5007930;28;20041;-53
2022/06/05 04:28:41;;;;;;;4.72;3.85;;;;;;;16.88;100.00;100174.31;5009308;28;20089;-53
2022/06/05 04:31:37;;;;;;;5.78;5.18;;;;;;;16.77;100.00;100172.16;5008188;28;20103;-54
2022/06/05 04:34:22;;;;;;;4.70;4.30;;;;;;;16.83;100.00;100163.94;5013408;28;20073;-53
2022/06/05 04:37:07;;;;;;;7.57;6.20;;;;;;;16.84;100.00;100165.66;5016444;28;20374;-54
2022/06/05 04:39:52;;;;;;;5.75;5.00;;;;;;;17.19;100.00;100157.88;5015438;28;20480;-53
2022/06/05 04:42:36;;;;;;;6.53;4.97;;;;;;;17.32;100.00;100171.38;5014479;28;20469;-53
2022/06/05 04:45:21;;;;;;;5.70;4.13;;;;;;;17.59;100.00;100166.59;5014638;28;20046;-53
2022/06/05 04:48:06;;;;;;;4.78;4.28;;;;;;;17.58;100.00;100170.16;5014450;28;20050;-54
2022/06/05 04:50:50;;;;;;;6.40;4.68;;;;;;;17.66;100.00;100168.84;5016283;28;20499;-53
2022/06/05 04:53:35;;;;;;;6.50;4.57;;;;;;;17.63;100.00;100168.16;5007907;28;20053;-53
2022/06/05 04:56:24;;;;;;;9.02;5.00;;;;;;;17.81;100.00;100169.06;5011034;28;20407;-53
2022/06/05 04:59:10;;;;;;;7.03;5.25;;;;;;;18.04;100.00;100165.28;5016974;28;20057;-53
2022/06/05 05:01:54;;;;;;;5.60;5.00;;;;;;;18.06;100.00;100179.31;5007611;28;20038;-54
2022/06/05 05:04:39;;;;;;;4.28;3.88;;;;;;;18.28;100.00;100181.75;5011760;28;20051;-54
2022/06/05 05:07:23;;;;;;;5.03;4.63;;;;;;;18.73;100.00;100178.53;5014704;28;20932;-56
2022/06/05 05:10:09;;;;;;;6.85;5.50;;;;;;;18.66;100.00;100175.31;5013510;28;20046;-54
2022/06/05 05:12:53;;;;;;;4.88;4.32;;;;;;;18.82;100.00;100175.38;5012721;28;20053;-54
2022/06/05 05:15:38;;;;;;;4.43;4.00;;;;;;;19.08;100.00;100175.78;5006623;28;20491;-55
2022/06/05 05:18:24;;;;;;;4.50;4.10;;;;;;;19.75;100.00;100182.66;5010349;28;20042;-55
2022/06/05 05:21:14;;;;;;;5.05;3.67;;;;;;;19.64;100.00;100182.44;5007672;28;20042;-55
2022/06/05 05:23:59;;;;;;;4.43;4.00;;;;;;;19.95;100.00;100178.00;5014678;28;20045;-54
2022/06/05 05:26:45;;;;;;;4.82;4.10;;;;;;;19.88;100.00;100182.81;5013449;28;20575;-55
2022/06/05 05:29:29;;;;;;;4.68;3.83;;;;;;;20.20;100.00;100180.09;5007243;28;20128;-55
2022/06/05 05:32:13;;;;;;;6.32;4.30;;;;;;;20.50;100.00;100183.56;5014938;28;20054;-55
2022/06/05 05:34:58;;;;;;;4.70;4.13;;;;;;;20.48;100.00;100187.28;5006145;28;20600;-55
2022/06/05 05:37:42;;;;;;;3.63;3.15;;;;;;;20.75;100.00;100174.13;5008339;28;20129;-55
2022/06/05 05:43:29;;;;;;;5.18;3.97;;;;;;;20.29;100.00;100187.53;5013177;28;20046;-55
2022/06/05 05:46:15;;;;;;;5.78;4.60;;;;;;;20.47;100.00;100177.56;5005122;28;20045;-54
2022/06/05 05:49:00;;;;;;;5.05;4.32;;;;;;;20.25;100.00;100186.84;5005030;28;20100;-55
2022/06/05 05:51:44;;;;;;;5.43;4.68;;;;;;;19.92;100.00;100181.72;5006989;28;20041;-55
2022/06/05 05:54:29;;;;;;;4.93;4.40;;;;;;;20.54;100.00;100185.16;5013479;28;20589;-54
2022/06/05 05:57:13;;;;;;;4.25;3.85;;;;;;;20.65;100.00;100168.53;5013431;28;20148;-55
2022/06/05 05:59:58;;;;;;;5.43;4.60;;;;;;;21.00;100.00;100176.13;5011955;28;20092;-55
2022/06/05 06:02:43;;;;;;;4.78;4.22;;;;;;;21.22;100.00;100160.53;5003313;28;20057;-55
2022/06/05 06:05:30;;;;;;;5.85;3.92;;;;;;;20.93;100.00;100158.84;5009678;28;20069;-54
2022/06/05 06:08:14;;;;;;;5.43;4.00;;;;;;;21.20;100.00;100157.09;5012762;28;20065;-55
2022/06/05 06:10:59;;;;;;;5.93;4.65;;;;;;;20.89;100.00;100160.81;5013931;28;20103;-54
2022/06/05 06:13:44;;;;;;;6.80;5.10;;;;;;;21.46;100.00;100163.44;5006344;28;20060;-54
2022/06/05 06:16:28;;;;;;;5.53;4.35;;;;;;;20.85;100.00;100159.31;5006718;28;20037;-54
2022/06/05 06:19:13;;;;;;;6.53;4.30;;;;;;;21.77;100.00;100160.56;5007451;28;20455;-54
2022/06/05 06:21:58;;;;;;;4.65;3.83;;;;;;;21.44;100.00;100162.66;5005922;28;20042;-55
2022/06/05 06:24:42;;;;;;;5.97;4.05;;;;;;;21.52;100.00;100166.69;5007422;28;20056;-54
2022/06/05 06:27:27;;;;;;;5.93;4.05;;;;;;;21.55;100.00;100161.16;5005892;28;20046;-54
2022/06/05 06:30:12;;;;;;;4.30;3.78;;;;;;;21.79;100.00;100162.19;5006591;28;20041;-54
2022/06/05 06:32:56;;;;;;;5.15;3.90;;;;;;;21.79;100.00;100170.19;5010317;28;20038;-54
2022/06/05 06:35:40;;;;;;;3.63;3.33;;;;;;;21.97;100.00;100161.91;5009883;28;20056;-55
2022/06/05 06:38:25;;;;;;;5.78;3.80;;;;;;;22.14;100.00;100161.66;5012365;28;20050;-54
2022/06/05 06:41:12;;;;;;;3.05;2.60;;;;;;;22.64;100.00;100158.19;5010970;28;20054;-54
2022/06/05 06:43:57;;;;;;;3.20;2.90;;;;;;;23.03;100.00;100151.03;5011270;28;20046;-55
2022/06/05 06:46:42;;;;;;;4.53;3.05;;;;;;;22.95;100.00;100160.59;5010430;28;20100;-54
2022/06/05 06:49:26;;;;;;;5.55;3.25;;;;;;;23.39;100.00;100146.69;5009683;28;20049;-54
2022/06/05 06:52:11;;;;;;;4.00;3.20;;;;;;;23.57;100.00;100157.84;5009884;28;20400;-55
2022/06/05 06:54:56;;;;;;;4.63;3.05;;;;;;;23.67;100.00;100161.53;5008233;28;20049;-54
2022/06/05 06:57:45;;;;;;;3.67;3.22;;;;;;;23.41;100.00;100157.28;5013260;28;20148;-55
2022/06/05 07:00:30;;;;;;;3.42;2.95;;;;;;;23.50;100.00;100151.25;5009602;28;20046;-55
2022/06/05 07:03:14;;;;;;;4.25;3.33;;;;;;;23.32;100.00;100148.94;5016289;28;20054;-55
2022/06/05 07:06:04;;;;;;;5.78;2.95;;;;;;;24.35;100.00;100152.00;5014868;28;20124;-53
2022/06/05 07:08:49;;;;;;;5.85;3.08;;;;;;;24.22;100.00;100156.59;5010404;28;20444;-55
2022/06/05 07:11:34;;;;;;;3.55;2.85;;;;;;;24.89;96.98;100155.84;5012923;28;20439;-62
2022/06/05 07:14:18;;;;;;;4.00;3.22;;;;;;;24.59;92.00;100162.63;5010861;28;20604;-63
2022/06/05 07:17:04;;;;;;;4.03;2.42;;;;;;;24.57;88.52;100158.38;5009428;28;20615;-64
2022/06/05 07:19:48;;;;;;;3.20;2.38;;;;;;;24.91;90.87;100153.91;5012758;28;20117;-63
2022/06/05 07:22:33;;;;;;;6.47;3.55;;;;;;;25.13;87.23;100156.59;5009657;28;20064;-62
2022/06/05 07:25:18;;;;;;;6.15;3.30;;;;;;;25.49;85.79;100162.66;5004526;28;20038;-60
2022/06/05 07:28:05;;;;;;;5.40;3.45;;;;;;;24.82;88.14;100149.28;5006063;28;20096;-64
2022/06/05 07:30:50;;;;;;;3.75;3.35;;;;;;;25.18;87.88;100157.06;5012135;28;20048;-63
2022/06/05 07:33:35;;;;;;;5.32;3.33;;;;;;;25.09;84.03;100149.78;5009403;28;20037;-64
2022/06/05 07:36:22;;;;;;;3.25;2.67;;;;;;;25.55;85.27;100150.56;5008131;28;20076;-63
2022/06/05 07:39:06;;;;;;;4.03;3.33;;;;;;;25.85;80.72;100148.06;5004919;28;20049;-64
2022/06/05 07:41:52;;;;;;;5.00;2.67;;;;;;;25.66;81.37;100145.16;5005858;28;20053;-62
2022/06/05 07:44:37;;;;;;;2.60;2.40;;;;;;;26.04;81.42;100152.72;5008662;28;20046;-62
2022/06/05 07:47:21;;;;;;;3.95;3.20;;;;;;;25.37;79.98;100155.59;5010106;28;20045;-62
2022/06/05 07:50:06;;;;;;;4.30;2.70;;;;;;;26.38;79.07;100157.06;5007951;28;20042;-57
2022/06/05 07:55:53;;;;;;;4.63;3.38;;;;;;;26.63;77.25;100156.69;5009788;28;20046;-65
2022/06/05 07:58:38;;;;;;;2.80;2.30;;;;;;;26.63;78.54;100151.31;5011971;28;20119;-63
2022/06/05 08:01:22;;;;;;;4.22;2.60;;;;;;;27.19;76.27;100150.88;5011788;28;20139;-58
2022/06/05 08:04:06;;;;;;;4.97;2.80;;;;;;;27.26;74.27;100152.00;5010566;28;20511;-55
2022/06/05 08:06:57;;;;;;;3.15;2.47;;;;;;;27.53;73.40;100155.03;5014472;28;20049;-61
2022/06/05 08:09:42;;;;;;;3.33;2.53;;;;;;;27.22;73.64;100155.97;5017327;28;20137;-61
2022/06/05 08:12:31;;;;;;;2.92;2.08;;;;;;;27.67;73.55;100151.97;5013579;28;20081;-56
2022/06/05 08:15:16;;;;;;;6.38;2.47;;;;;;;26.45;72.34;100148.34;5014760;28;20375;-57
2022/06/05 08:18:02;;;;;;;2.20;2.00;;;;;;;27.47;72.99;100146.56;5015172;28;20100;-57
2022/06/05 08:20:46;;;;;;;3.47;2.08;;;;;;;27.18;76.36;100149.16;5010551;28;20069;-59
2022/06/05 08:23:31;;;;;;;3.38;2.13;;;;;;;26.52;73.03;100143.34;5009547;28;20056;-59
2022/06/05 08:26:16;;;;;;;4.40;2.13;;;;;;;26.31;73.38;100152.22;5009425;28;20477;-55
2022/06/05 08:29:01;;;;;;;3.05;2.20;;;;;;;27.09;70.47;100147.25;5010486;28;20049;-60
2022/06/05 08:31:47;;;;;;;2.65;1.98;;;;;;;26.88;71.91;100139.28;5011835;28;20065;-55
2022/06/05 08:34:33;;;;;;;2.35;2.00;;;;;;;26.99;69.22;100141.84;5007072;28;20041;-59
2022/06/05 08:43:51;;;;;;;2.72;2.20;;;;;;;27.84;61.93;100143.22;5009091;28;20141;-60
2022/06/05 08:46:45;;;;;;;3.83;1.95;;;;;;;27.72;64.60;100147.88;4999747;28;20054;-58
2022/06/05 08:49:45;;;;;;;3.08;1.80;;;;;;;27.32;62.48;100139.88;5008739;28;20060;-59
2022/06/05 08:52:38;;;;;;;2.15;1.60;;;;;;;27.92;61.88;100138.00;5008614;28;20054;-58
2022/06/05 08:55:30;;;;;;;2.22;2.03;;;;;;;26.54;58.81;100139.53;5009240;28;20069;-60
2022/06/05 08:58:23;;;;;;;4.85;1.30;;;;;;;27.44;55.59;100133.38;5010716;28;20060;-59
2022/06/05 09:01:27;;;;;;;3.25;1.35;;;;;;;27.54;56.45;100132.56;5012390;28;20488;-60
2022/06/05 09:04:25;;;;;;;4.00;1.27;;;;;;;27.70;55.94;100133.69;5011695;28;20038;-61
2022/06/05 09:07:19;;;;;;;1.90;1.27;;;;;;;27.66;53.95;100131.44;5008304;28;20049;-61
2022/06/05 09:10:06;;;;;;;;;;;;;;;28.18;51.57;100132.88;5008139;28;20307;-61
2022/06/05 09:12:58;;;;;;;2.47;1.40;;;;;;;28.53;50.67;100134.09;5011262;28;19921;-61
2022/06/05 09:15:58;;;;;;;3.25;1.77;;;;;;;27.94;53.90;100132.44;5005831;28;20108;-60
2022/06/05 09:18:48;;;;;;;3.90;1.63;;;;;;;28.53;54.07;100130.53;5008393;28;20136;-61
2022/06/05 09:21:51;;;;;;;4.93;1.88;;;;;;;27.86;53.77;100129.63;5010239;28;20049;-60
2022/06/05 09:24:51;;;;;;;2.53;1.52;;;;;;;28.34;52.50;100117.94;5015422;28;20057;-61
2022/06/05 09:27:41;;;;;;;2.35;1.30;;;;;;;27.64;55.34;100125.34;5010993;28;20073;-60
2022/06/05 09:30:44;;;;;;;1.60;1.50;;;;;;;27.03;53.23;100123.63;5005755;28;20084;-60
2022/06/05 09:33:34;;;;;;;0.82;0.82;;;;;;;27.73;52.39;100124.50;5000701;28;20677;-60
2022/06/05 09:36:24;;;;;;;1.77;1.67;;;;;;;27.78;54.11;100122.25;4999741;28;20073;-60
2022/06/05 09:39:19;;;;;;;1.30;1.20;;;;;;;28.74;50.16;100115.03;4998733;28;20405;-61
2022/06/05 09:42:33;;;;;;;1.83;1.27;;;;;;;28.66;51.20;100106.81;5002564;28;20412;-61
2022/06/05 09:45:18;;;;;;;2.05;1.20;;;;;;;28.28;50.35;100107.78;5003333;28;20040;-59
2022/06/05 09:48:36;;;;;;;1.88;1.20;;;;;;;28.70;51.08;100110.06;5002579;28;20049;-58
2022/06/05 09:51:21;;;;;;;4.25;1.60;;;;;;;28.13;50.82;100101.97;5005459;28;20045;-60
2022/06/05 09:54:28;;;;;;;1.17;1.08;;;;;;;27.93;49.56;100104.69;5005492;28;20510;-59
2022/06/05 10:00:59;;;;;;;2.13;1.42;;;;;;;28.55;52.12;100099.78;5005048;28;20057;-60
2022/06/05 10:03:44;;;;;;;1.63;1.50;;;;;;;28.11;54.80;100109.34;5008294;28;20054;-61
2022/06/05 10:06:42;;;;;;;2.00;1.50;;;;;;;28.65;48.19;100097.88;5002072;28;20053;-60
2022/06/05 10:09:29;;;;;;;2.25;1.45;;;;;;;29.08;46.71;100088.34;5007869;28;20038;-60
2022/06/05 10:12:22;;;;;;;1.33;1.17;;;;;;;29.30;47.67;100089.78;5008689;28;20093;-60
2022/06/05 10:15:16;;;;;;;1.52;1.20;;;;;;;28.56;49.14;100079.06;5007508;28;20384;-61
2022/06/05 10:18:08;;;;;;;2.10;1.80;;;;;;;27.32;52.80;100090.63;5018255;28;20096;-60
2022/06/05 10:20:59;;;;;;;1.30;1.20;;;;;;;28.51;50.56;100082.22;5007023;28;20046;-60
2022/06/05 10:23:51;;;;;;;2.35;0.90;;;;;;;28.46;50.95;100089.03;5000612;28;20052;-61
2022/06/05 10:26:39;;;;;;;1.48;1.23;;;;;;;28.59;54.77;100084.16;4998505;28;20057;-60
2022/06/05 10:29:38;;;;;;;1.27;1.08;;;;;;;28.80;47.59;100087.50;5007250;28;20773;-61
2022/06/05 10:32:29;;;;;;;1.75;1.27;;;;;;;28.43;47.19;100087.47;5003866;28;20054;-61
2022/06/05 10:35:22;;;;;;;2.00;1.08;;;;;;;28.35;48.04;100092.72;5006761;28;20080;-59
2022/06/05 10:38:33;;;;;;;4.53;1.60;;;;;;;29.07;46.39;100086.66;5004907;28;20057;-61
2022/06/05 10:41:23;;;;;;;1.40;1.20;;;;;;;28.62;48.90;100082.03;4993034;28;20144;-61
2022/06/05 10:44:27;;;;;;;2.78;1.33;;;;;;;27.93;49.90;100088.53;5006291;28;20045;-59
2022/06/05 10:47:49;;;;;;;2.70;1.35;;;;;;;29.22;49.54;100087.00;5007487;28;20439;-62
2022/06/05 10:50:48;;;;;;;2.63;1.10;;;;;;;29.30;45.84;100081.69;5007794;28;20042;-61
2022/06/05 10:54:14;;;;;;;1.77;1.20;;;;;;;28.10;48.46;100075.34;5004035;28;20046;-61
2022/06/05 10:57:29;;;;;;;1.27;0.90;;;;;;;28.74;47.22;100074.59;5002221;28;20605;-60
2022/06/05 11:00:17;;;;;;;1.75;1.65;;;;;;;28.72;47.04;100063.13;5006671;28;20504;-60
2022/06/05 11:03:05;;;;;;;1.70;1.27;;;;;;;27.98;48.81;100077.34;4999736;28;20042;-60
2022/06/05 11:06:27;;;;;;;1.58;1.23;;;;;;;29.40;43.94;100080.78;5005606;28;20096;-63
2022/06/05 11:09:37;;;;;;;0.82;0.82;;;;;;;28.85;43.58;100077.09;5005355;28;20046;-61
2022/06/05 11:15:59;;;;;;;1.15;0.90;;;;;;;29.59;45.40;100062.59;5008922;28;20087;-60
2022/06/05 11:18:53;;;;;;;1.95;1.08;;;;;;;29.18;44.12;100064.03;5002329;28;20346;-61
2022/06/05 11:21:42;;;;;;;1.48;1.10;;;;;;;28.06;44.78;100066.72;5006684;28;20058;-61
2022/06/05 11:24:34;;;;;;;1.38;0.90;;;;;;;29.03;45.35;100054.78;5008171;28;22029;-60
2022/06/05 11:27:33;;;;;;;2.45;1.20;;;;;;;29.24;46.25;100055.31;5005522;28;20042;-61
2022/06/05 11:30:24;;;;;;;2.50;1.35;;;;;;;29.37;43.13;100052.25;5006635;28;20053;-62
2022/06/05 11:33:23;;;;;;;0.90;0.80;;;;;;;29.00;45.41;100049.66;5006967;28;20046;-61
2022/06/05 11:36:27;;;;;;;2.47;1.00;;;;;;;28.55;44.91;100043.22;5007211;28;20052;-61
2022/06/05 11:39:54;;;;;;;1.05;0.88;;;;;;;28.58;46.47;100040.22;5009365;28;20056;-62
2022/06/05 11:42:50;;;;;;;1.08;1.02;;;;;;;28.57;43.43;100043.91;5003698;28;20144;-62
2022/06/05 11:45:41;;;;;;;1.42;1.00;;;;;;;28.45;45.65;100045.09;5007304;28;20050;-61
2022/06/05 11:48:35;;;;;;;1.05;0.95;;;;;;;29.18;45.56;100033.53;5009116;28;20129;-61
2022/06/05 11:51:21;;;;;;;1.85;0.95;;;;;;;28.95;44.30;100019.59;5010236;28;20404;-62
2022/06/05 11:54:24;;;;;;;2.53;1.00;;;;;;;29.10;43.62;100020.81;5009419;28;20048;-62
2022/06/05 11:57:22;;;;;;;2.33;1.08;;;;;;;29.02;41.62;100015.31;5007502;28;20082;-62
2022/06/05 12:00:25;;;;;;;4.80;1.00;;;;;;;28.71;42.59;100004.84;5008137;28;20042;-62
2022/06/05 12:03:38;;;;;;;1.75;1.30;;;;;;;28.94;43.51;99999.03;5007093;28;20331;-61
2022/06/05 12:07:04;;;;;;;1.63;1.50;;;;;;;28.59;44.83;99996.09;5005651;28;20050;-60
2022/06/05 12:09:55;;;;;;;1.10;0.93;;;;;;;29.63;43.11;100001.09;5008233;28;20637;-62
2022/06/05 12:12:49;;;;;;;4.13;1.23;;;;;;;28.76;44.73;99990.91;5006024;28;20124;-61
2022/06/05 12:15:56;;;;;;;1.27;1.17;;;;;;;28.46;44.94;99992.91;5009407;28;20058;-61
2022/06/05 12:18:57;;;;;;;1.60;1.20;;;;;;;28.30;44.69;100001.59;5002253;28;20054;-63
2022/06/05 12:21:50;;;;;;;1.45;1.02;;;;;;;28.24;44.67;99987.88;5012213;28;20187;-60
2022/06/05 12:24:52;;;;;;;2.53;1.10;;;;;;;28.24;43.55;99988.72;5008812;28;20084;-60
2022/06/05 12:27:57;;;;;;;;;;;;;;;28.85;41.06;99987.31;5010516;28;20061;-60
2022/06/05 12:30:51;;;;;;;1.48;1.10;;;;;;;29.13;45.32;99982.75;5008511;28;20220;-61
2022/06/05 12:34:10;;;;;;;1.27;0.68;;;;;;;29.28;41.44;99967.75;5005285;28;20075;-60
2022/06/05 12:37:01;;;;;;;1.40;1.30;;;;;;;28.14;43.49;99966.38;5001050;28;20041;-61
2022/06/05 12:39:51;;;;;;;4.05;1.65;;;;;;;28.96;42.69;99970.94;5003770;28;20059;-62
2022/06/05 12:42:46;;;;;;;1.33;1.00;;;;;;;28.29;43.70;99962.22;5003149;28;20077;-61
2022/06/05 12:45:33;;;;;;;4.65;1.45;;;;;;;28.17;43.55;99958.84;5003505;28;20046;-59
2022/06/05 12:48:23;;;;;;;4.03;1.40;;;;;;;28.04;43.44;99950.25;5007371;28;20489;-60
2022/06/05 12:51:20;;;;;;;5.15;1.20;;;;;;;28.20;44.25;99958.56;5020595;28;20049;-63
2022/06/05 12:54:17;;;;;;;1.30;1.13;;;;;;;28.63;43.07;99956.25;5006187;28;20054;-62
2022/06/05 12:57:11;;;;;;;1.35;1.25;;;;;;;28.10;43.46;99955.06;5004967;28;20042;-62
2022/06/05 13:00:04;;;;;;;8.77;1.48;;;;;;;28.50;42.31;99947.66;5006136;28;20046;-60
2022/06/05 13:03:00;;;;;;;0.90;0.90;;;;;;;28.31;40.25;99945.91;5006600;28;20053;-59
2022/06/05 13:06:03;;;;;;;1.80;1.30;;;;;;;27.57;43.25;99936.78;5006788;28;20054;-55
2022/06/05 13:08:57;;;;;;;4.70;1.60;;;;;;;27.71;43.47;99946.22;5004918;28;20061;-63
2022/06/05 13:11:50;;;;;;;1.20;1.10;;;;;;;27.68;43.34;99946.50;5005467;28;20077;-59
2022/06/05 13:14:49;;;;;;;2.53;1.50;;;;;;;28.47;41.50;99940.75;5006570;28;20042;-60
2022/06/05 13:18:08;;;;;;;1.67;1.17;;;;;;;28.64;42.88;99937.25;5004322;28;20083;-58
2022/06/05 13:21:13;;;;;;;3.80;1.23;;;;;;;27.63;43.72;99940.72;4972964;28;20550;-62
2022/06/05 13:24:16;;;;;;;1.48;1.23;;;;;;;27.80;44.33;99925.72;5003666;28;20046;-59
2022/06/05 13:27:04;;;;;;;1.48;1.38;;;;;;;27.87;44.87;99929.50;5006395;28;21606;-59
2022/06/05 13:30:16;;;;;;;3.40;1.77;;;;;;;28.24;42.18;99920.56;5010169;28;20057;-61
2022/06/05 13:33:13;;;;;;;;;;;;;;;27.73;46.31;99918.19;5003580;28;20901;-60
2022/06/05 13:36:15;;;;;;;3.60;1.45;;;;;;;27.34;45.41;99925.47;5002960;28;20539;-57